< < Back
Terminal Aerodrome Forecast


Current Version              Previous Versions:   1  2  3  4  5  6  7  8  9  

Terminal Aerodrome Forecast

009
FTUS42 KGSP 230500
TAFAVL
TAF
KAVL 230536Z 2306/2406 VRB03KT P6SM FEW060 SCT120 BKN250
     FM230800 35003KT P6SM VCSH SCT040 BKN100
      TEMPO 2309/2313 5SM BR BKN040
     FM231300 34006KT P6SM SCT040
     FM231800 33005KT P6SM VCSH BKN045 PROB30 2321/2403 4SM TSRA
      BKN040CB=



Latest METAR

733
SAUS70 KWBC 231900 RRC
MTRAVL
METAR KAVL 231854Z 35013G19KT 10SM FEW049 31/18 A3004 RMK AO2 LTG DSNT S
SLP141 T03110183


USA.gov is the U.S. government's official web portal to all federal, state and local government web resources and services.